TFM - Tactical Decision Aid (Experimental) INFO Settings
ID: Runway Winds: CIG/VIS Threshold: METAR Board: Map:

KATL - Atlanta-Hartsfield Jackson Intl

Updated at: 1924 UTC 16 Aug 2017
Latest TAF at: 1735 UTC 16 Aug 2017

TAF Board

Time1852Z16/20Z16/21Z16/22Z16/23Z17/00Z17/01Z17/02Z17/03Z17/04Z17/05Z17/06Z17/07Z17/08Z
TypeOBSPRVLPRVLPRVLPRVLPRVLPRVLPRVLPRVLPRVLPRVLPRVLPRVLPRVL
VIS10>6>6>6>6>6>6>6>6>6>6>6>6>6
CIG----120120120120250250250250--------
CoverSCTSCTBKNBKNBKNBKNBKNBKNBKNBKNSCTSCTSCTSCT
FltCatVFRVFRVFRVFRVFRVFRVFRVFRVFRVFRVFRVFRVFRVFR
WX----VCSHVCSHVCSHVCSH----------------
WDirVRB320280280280280250250250250260260260260
WSpd38888855555555
WGst----------------------------
TAF
KATL 161735Z 1618/1724 32008KT P6SM SCT030 SCT180
  FM162100 28008KT P6SM VCSH SCT040 BKN120
  FM170100 25005KT P6SM FEW050 BKN250
  FM170500 26005KT P6SM SCT120
  FM171400 27005KT P6SM SCT025 SCT200
  FM172000 26007KT P6SM SCT060 BKN120
  PROB30 1720/1724 4SM -TSRA BKN050CB


METAR
KATL 161852Z VRB03KT 10SM SCT035 31/23 A3006 RMK AO2 SLP169 MDT CU N & E & SE-S & NW T03060228

TAF/METAR Board Legend

Potential Impact
  None Marginal Slight Moderate High
Visibility (sm) >5 3≤X≤5 1≤X<3 0.5≤X<1 <0.5
Ceiling (100 ft) >30 10≤X≤30 4≤X<10 2≤X<4 <2
Wind Speed (kt) <10 10≤X<20 20≤X<30 ≥30
Wind Gust (kt) <15 15≤X<25 25≤X<35 ≥35
Weather No Wx Reported VCTS -TS,-FZRA TS,FZRA +TS,+FZRA